KEKM

Elkhart Municipal Airport

Elkhart, Indiana, USA
METAR KEKM 231350Z 15005KT 2 1/2SM BR OVC004 04/03 A3012 RMK AO2
Observed Flight Rules
Feb-23 @ 13:50 UTC (47 minutes ago) Instrument Flight Rules
Wind Visibility Clouds Conditions
150° at 5 knots 2 1/2 miles
  • Overcast at 400' AGL
  • Mist
Temperatures Readings
Current 4°C / 39°F
Dewpoint 3°C / 37°F
Humidity 93%
Altimeter 30.12" Hg
Pressure 1020 hPa
Elevation 237
METAR KEKM 231350Z 15005KT 2 1/2SM BR OVC004 04/03 A3012 RMK AO2
Observed Flight Rules
Feb-23 @ 13:50 UTC
(47 minutes ago)
LIFR
Wind Visibility
150° at 5 knots 2 1/2 miles
Clouds
  • Overcast at 400' AGL
Conditions
  • Mist
Temperature Dewpoint
4°C / 39°F 3°C / 37°F
Humidity Altimeter Pressure
93% 30.12" Hg 1020 hPa